Date,TemperatureHighF,TemperatureAvgF,TemperatureLowF,DewpointHighF,DewpointAvgF,DewpointLowF,HumidityHigh,HumidityAvg,HumidityLow,PressureMaxIn,PressureMinIn,WindSpeedMaxMPH,WindSpeedAvgMPH,GustSpeedMaxMPH,PrecipitationSumIn
2013-3-1,47.6,37.9,26.0,32.0,27.4,23.0,90,68,49,29.98,29.91,6,0,0,0.00
2013-3-2,47.6,38.8,29.2,37.0,30.0,22.0,91,72,50,29.98,29.86,4,0,0,0.13
2013-3-3,46.4,33.3,22.5,22.0,18.8,16.0,85,59,34,30.07,29.94,5,1,0,0.00
2013-3-4,56.1,39.9,24.4,25.0,17.5,13.0,73,45,19,30.19,30.06,8,1,0,0.00
2013-3-5,42.0,41.9,41.8,23.0,23.0,23.0,48,48,47,30.09,30.09,0,0,0,0.00
2013-3-6,42.6,34.7,29.2,26.0,25.1,24.0,81,69,52,30.16,30.04,3,0,0,0.01
2013-3-7,57.1,39.6,23.6,31.0,25.9,21.0,91,62,33,30.31,30.16,6,1,0,0.00
2013-3-8,59.1,41.4,25.0,27.0,23.1,19.0,88,54,21,30.37,30.24,6,1,0,0.00
2013-3-9,63.7,46.1,27.0,36.0,28.9,23.0,86,55,28,30.40,30.27,5,0,0,0.00
2013-3-10,67.4,51.6,35.3,38.0,35.0,31.0,87,57,29,30.33,30.19,5,0,0,0.00
2013-3-11,68.8,55.6,41.4,54.0,44.4,35.0,91,67,50,30.21,29.87,9,1,0,0.26
2013-3-12,67.9,58.5,43.9,56.0,44.7,27.0,93,66,22,30.01,29.76,8,1,0,0.22
2013-3-13,56.5,43.5,33.2,32.0,25.6,18.0,82,53,26,30.20,30.01,12,1,0,0.00
2013-3-14,54.3,40.2,27.8,23.0,17.9,13.0,67,43,20,30.34,30.20,8,1,0,0.00
2013-3-15,68.6,47.5,27.8,41.0,29.9,20.0,79,54,32,30.25,29.94,6,1,0,0.00
2013-3-16,77.9,64.3,51.7,48.0,44.4,41.0,71,51,33,29.94,29.74,9,2,0,0.00
2013-3-17,78.5,61.2,45.3,53.0,45.1,39.0,78,57,34,30.10,29.85,9,1,0,0.00
2013-3-18,45.2,41.4,39.8,40.0,38.4,37.0,92,89,79,30.15,29.91,6,1,0,0.40
2013-3-19,65.0,50.6,40.3,44.0,31.0,18.0,94,57,17,30.09,29.89,14,1,0,0.00
2013-3-20,58.1,49.1,42.7,22.0,16.4,9.0,39,28,18,30.14,29.82,10,1,0,0.00
2013-3-21,46.5,37.4,26.4,28.0,15.2,11.0,67,42,26,30.01,29.84,12,2,0,0.00
2013-3-22,51.6,38.2,24.3,26.0,18.8,14.0,78,48,26,30.14,30.01,6,1,0,0.00
2013-3-23,55.8,44.9,39.2,42.0,35.9,25.0,89,72,47,30.09,29.93,5,0,0,0.02
2013-3-24,43.6,41.8,39.5,41.0,38.9,37.0,91,89,85,29.98,29.59,6,1,0,0.89
2013-3-25,47.9,41.0,35.7,37.0,27.7,20.0,93,63,36,29.94,29.59,14,3,0,0.05
2013-3-26,48.1,38.6,28.1,27.0,23.8,22.0,79,57,40,30.23,29.95,9,1,0,0.00
2013-3-27,53.7,41.9,27.4,27.0,22.9,21.0,80,49,32,30.31,30.22,6,1,0,0.00
2013-3-28,58.8,41.9,25.2,27.0,22.6,19.0,84,51,23,30.35,30.23,7,1,0,0.00
2013-3-29,63.5,46.1,26.5,39.0,27.8,23.0,87,54,23,30.39,30.22,8,1,0,0.00
2013-3-30,65.1,52.3,44.7,46.0,42.5,38.0,92,72,42,30.27,30.06,4,0,0,0.26
2013-3-31,71.8,57.6,49.9,57.0,50.8,44.0,93,80,54,30.07,29.83,9,1,0,0.31